Huntington, California
Current Conditions -  °F | °C
As of 3:53 AM on Thursday 27 Nov 2014 (Local Time) from KSNA Reporting Station
Clear Clear  
Wind Chill: 55°   Ceiling: Unl
Heat Index: 55°   Visibility: 10mi
Dew Point: 42°   Wind: 0mph
Humidity: 62%   Direction: NA
Pressure: 30.07"   Gusts: NA
Location:  33.6654°N, 117.968°W
Report Text: KSNA 271153Z 00000KT 10SM CLR 13/06 A3007 RMK AO2 SLP181 T01280056 10178 20128 58008
Loading
Personal Weather Stations






























Interactive Weather Map New forecast layout! Learn more

10-Day Weather Forecast

Advertisements
Track Severe Weather on mobile